Time;durP1;ratioP1;P1;durP2;ratioP2;P2;SDS_P1;SDS_P2;PMS_P1;PMS_P2;Temp;Humidity;BMP_temperature;BMP_pressure;BME280_temperature;BME280_humidity;BME280_pressure;Samples;Min_cycle;Max_cycle;Signal;HPM_P1;HPM_P2
2021/03/05 00:00:05;;;;;;;0.50;0.40;;;3.20;99.90;;;;;;5092451;28;20227;-83
2021/03/05 00:05:54;;;;;;;1.15;1.15;;;3.30;99.90;;;;;;5088042;28;20189;-81
2021/03/05 00:08:20;;;;;;;0.50;0.40;;;3.30;99.90;;;;;;5090931;28;20193;-82
2021/03/05 00:10:48;;;;;;;0.50;0.40;;;3.40;99.90;;;;;;5090702;28;20198;-83
2021/03/05 00:13:15;;;;;;;0.50;0.40;;;3.40;99.90;;;;;;5090320;28;20217;-81
2021/03/05 00:15:43;;;;;;;1.25;1.15;;;3.40;99.90;;;;;;5089546;28;20217;-83
2021/03/05 00:18:09;;;;;;;0.50;0.40;;;3.30;99.90;;;;;;5089224;28;20528;-82
2021/03/05 00:20:38;;;;;;;0.50;0.40;;;3.30;99.90;;;;;;5090574;28;20219;-81
2021/03/05 00:23:06;;;;;;;0.50;0.40;;;3.40;99.90;;;;;;5098563;28;20234;-81
2021/03/05 00:25:33;;;;;;;0.50;0.40;;;3.30;99.90;;;;;;5098148;28;20209;-81
2021/03/05 00:28:00;;;;;;;0.52;0.52;;;3.30;99.90;;;;;;5097097;28;20189;-82
2021/03/05 00:30:26;;;;;;;0.50;0.40;;;3.20;99.90;;;;;;5097471;28;20220;-81
2021/03/05 00:32:53;;;;;;;0.60;0.60;;;3.20;99.90;;;;;;5095518;28;20232;-82
2021/03/05 00:35:20;;;;;;;0.50;0.40;;;3.30;99.90;;;;;;5094259;28;20296;-83
2021/03/05 00:37:47;;;;;;;0.50;0.40;;;3.40;99.90;;;;;;5092876;28;20201;-83
2021/03/05 00:40:15;;;;;;;0.50;0.40;;;3.40;99.90;;;;;;5093769;28;20198;-80
2021/03/05 00:42:43;;;;;;;0.50;0.40;;;3.40;99.90;;;;;;5093454;28;20254;-81
2021/03/05 00:45:13;;;;;;;0.63;0.50;;;3.40;99.90;;;;;;5092385;28;20241;-81
2021/03/05 00:47:39;;;;;;;0.50;0.40;;;3.40;99.90;;;;;;5092600;28;20188;-82
2021/03/05 00:50:09;;;;;;;0.50;0.40;;;3.50;99.90;;;;;;5093640;28;20204;-83
2021/03/05 00:52:36;;;;;;;0.50;0.40;;;3.50;99.90;;;;;;5091790;28;20265;-82
2021/03/05 00:55:02;;;;;;;1.25;1.15;;;3.40;99.90;;;;;;5075171;28;20236;-81
2021/03/05 00:57:29;;;;;;;1.48;1.38;;;3.40;99.90;;;;;;5092013;28;20206;-81
2021/03/05 00:59:55;;;;;;;0.50;0.40;;;3.40;99.90;;;;;;5090377;28;20688;-80
2021/03/05 01:02:22;;;;;;;1.13;1.13;;;3.40;99.90;;;;;;5092467;28;20192;-82
2021/03/05 01:04:49;;;;;;;0.50;0.40;;;3.40;99.90;;;;;;5093107;28;20230;-80
2021/03/05 01:07:15;;;;;;;1.45;1.02;;;3.20;99.90;;;;;;5091245;28;20201;-80
2021/03/05 01:09:42;;;;;;;0.50;0.40;;;3.20;99.90;;;;;;5092764;28;20257;-81
2021/03/05 01:12:09;;;;;;;0.50;0.50;;;3.10;99.90;;;;;;5091886;28;20563;-81
2021/03/05 01:14:36;;;;;;;0.50;0.40;;;3.10;99.90;;;;;;5092111;28;20304;-81
2021/03/05 01:17:02;;;;;;;0.50;0.40;;;3.10;99.90;;;;;;5090813;28;20186;-80
2021/03/05 01:19:30;;;;;;;0.50;0.40;;;3.20;99.90;;;;;;5091741;28;20197;-81
2021/03/05 01:21:57;;;;;;;0.73;0.73;;;3.20;99.90;;;;;;5092023;28;20200;-82
2021/03/05 01:24:23;;;;;;;0.77;0.77;;;3.30;99.90;;;;;;5090957;28;20215;-82
2021/03/05 01:26:50;;;;;;;1.77;1.60;;;3.40;99.90;;;;;;5090852;28;20181;-81
2021/03/05 01:29:18;;;;;;;0.50;0.40;;;3.40;99.90;;;;;;5090949;28;20197;-82
2021/03/05 01:31:45;;;;;;;4.65;0.75;;;3.30;99.90;;;;;;5090034;28;20209;-80
2021/03/05 01:34:11;;;;;;;0.50;0.40;;;3.40;99.90;;;;;;5090825;28;20217;-80
2021/03/05 01:36:38;;;;;;;2.10;2.00;;;3.40;99.90;;;;;;5089336;28;20220;-82
2021/03/05 01:39:06;;;;;;;4.55;1.98;;;3.50;99.90;;;;;;5090273;28;20209;-80
2021/03/05 01:41:32;;;;;;;0.85;0.82;;;3.50;99.90;;;;;;5090281;28;20220;-81
2021/03/05 01:43:59;;;;;;;0.80;0.80;;;3.40;99.90;;;;;;5089938;28;20755;-82
2021/03/05 01:46:27;;;;;;;0.50;0.40;;;3.40;99.90;;;;;;5088508;28;20229;-81
2021/03/05 01:48:53;;;;;;;0.50;0.40;;;3.40;99.90;;;;;;5090267;28;20199;-83
2021/03/05 01:51:23;;;;;;;0.50;0.40;;;3.40;99.90;;;;;;5087899;28;20208;-81
2021/03/05 01:53:50;;;;;;;1.50;1.15;;;3.40;99.90;;;;;;5090248;28;20188;-83
2021/03/05 01:56:33;;;;;;;1.80;1.70;;;3.40;99.90;;;;;;5088616;28;20259;-82
2021/03/05 01:59:00;;;;;;;1.35;1.25;;;3.40;99.90;;;;;;5086576;28;20575;-81
2021/03/05 02:01:28;;;;;;;1.10;1.10;;;3.50;99.90;;;;;;5082662;28;20269;-80
2021/03/05 02:03:54;;;;;;;1.17;1.17;;;3.40;99.90;;;;;;5083628;28;20269;-82
2021/03/05 02:06:21;;;;;;;0.98;0.98;;;3.40;99.90;;;;;;5081877;28;20213;-80
2021/03/05 02:08:48;;;;;;;1.52;0.70;;;3.30;99.90;;;;;;5083271;28;20204;-80
2021/03/05 02:11:17;;;;;;;1.55;1.05;;;3.30;99.90;;;;;;5084171;28;20393;-80
2021/03/05 02:13:43;;;;;;;6.80;6.45;;;3.20;99.90;;;;;;5083158;28;20215;-80
2021/03/05 02:16:19;;;;;;;2.05;1.88;;;3.20;99.90;;;;;;5083826;28;20250;-78
2021/03/05 02:18:51;;;;;;;3.08;2.63;;;3.20;99.90;;;;;;5088763;28;20239;-82
2021/03/05 02:21:35;;;;;;;0.50;0.40;;;3.20;99.90;;;;;;5089142;28;20230;-79
2021/03/05 02:24:30;;;;;;;0.50;0.40;;;3.30;99.90;;;;;;5094385;28;20174;-81
2021/03/05 02:27:30;;;;;;;0.63;0.63;;;3.30;99.90;;;;;;5091361;28;20190;-80
2021/03/05 02:30:18;;;;;;;2.25;1.77;;;3.20;99.90;;;;;;5093991;28;20192;-81
2021/03/05 02:32:54;;;;;;;0.88;0.88;;;3.20;99.90;;;;;;5093465;28;20200;-80
2021/03/05 02:35:25;;;;;;;0.73;0.70;;;3.20;99.90;;;;;;5094039;28;20223;-81
2021/03/05 02:37:54;;;;;;;0.50;0.40;;;3.30;99.90;;;;;;5092311;28;20649;-81
2021/03/05 02:40:27;;;;;;;0.50;0.40;;;3.20;99.90;;;;;;5092299;28;20232;-82
2021/03/05 02:42:57;;;;;;;0.50;0.40;;;3.20;99.90;;;;;;5091780;28;20178;-82
2021/03/05 02:45:28;;;;;;;0.50;0.40;;;3.30;99.90;;;;;;5092082;28;20606;-80
2021/03/05 02:48:01;;;;;;;0.50;0.40;;;3.30;99.90;;;;;;5143520;22;20219;-81
2021/03/05 02:50:29;;;;;;;0.50;0.40;;;3.30;99.90;;;;;;5090488;28;20192;-81
2021/03/05 02:52:59;;;;;;;0.50;0.40;;;3.20;99.90;;;;;;5108737;28;20215;-81
2021/03/05 02:55:27;;;;;;;0.50;0.40;;;3.20;99.90;;;;;;5119343;28;20205;-81
2021/03/05 02:57:57;;;;;;;0.55;0.55;;;3.20;99.90;;;;;;5115893;28;20219;-80
2021/03/05 03:00:24;;;;;;;0.50;0.40;;;3.20;99.90;;;;;;5121424;28;20195;-81
2021/03/05 03:02:53;;;;;;;0.50;0.40;;;3.10;99.90;;;;;;5117097;28;20186;-80
2021/03/05 03:05:22;;;;;;;0.50;0.40;;;3.00;99.90;;;;;;5114411;28;20584;-81
2021/03/05 03:07:50;;;;;;;0.90;0.90;;;3.00;99.90;;;;;;5120275;28;20222;-81
2021/03/05 03:10:19;;;;;;;0.50;0.40;;;3.10;99.90;;;;;;5121142;28;20196;-81
2021/03/05 03:12:46;;;;;;;0.50;0.40;;;3.00;99.90;;;;;;5120618;28;20209;-81
2021/03/05 03:15:14;;;;;;;0.50;0.40;;;3.10;99.90;;;;;;5121242;28;20213;-77
2021/03/05 03:17:43;;;;;;;6.70;1.50;;;3.10;99.90;;;;;;5119189;28;20219;-81
2021/03/05 03:20:13;;;;;;;1.48;1.40;;;3.10;99.90;;;;;;5120226;28;20678;-81
2021/03/05 03:22:42;;;;;;;12.80;1.83;;;3.10;99.90;;;;;;5120010;28;20188;-81
2021/03/05 03:25:09;;;;;;;0.50;0.40;;;3.10;99.90;;;;;;5120126;28;20195;-80
2021/03/05 03:27:36;;;;;;;1.55;1.40;;;3.10;99.90;;;;;;5119855;28;20225;-80
2021/03/05 03:30:03;;;;;;;0.50;0.40;;;3.10;99.90;;;;;;5120287;28;20218;-81
2021/03/05 03:32:30;;;;;;;0.60;0.60;;;3.20;99.90;;;;;;5116204;28;20214;-81
2021/03/05 03:34:57;;;;;;;0.98;0.98;;;3.20;99.90;;;;;;5113278;28;20652;-81
2021/03/05 03:37:24;;;;;;;1.25;1.15;;;3.10;99.90;;;;;;5119721;28;20216;-81
2021/03/05 03:39:51;;;;;;;8.73;2.38;;;3.00;99.90;;;;;;5120049;28;20191;-81
2021/03/05 03:42:18;;;;;;;1.15;1.05;;;2.90;99.90;;;;;;5120279;28;20248;-81
2021/03/05 03:44:44;;;;;;;1.88;1.77;;;2.80;99.90;;;;;;5119858;28;20206;-80
2021/03/05 03:47:11;;;;;;;1.42;1.33;;;2.90;99.90;;;;;;5119253;28;20227;-80
2021/03/05 03:49:43;;;;;;;0.50;0.50;;;2.90;99.90;;;;;;5119867;28;20213;-80
2021/03/05 03:52:15;;;;;;;1.13;1.13;;;2.80;99.90;;;;;;5112118;28;20180;-81
2021/03/05 03:54:43;;;;;;;0.50;0.40;;;2.80;99.90;;;;;;5120393;28;20847;-81
2021/03/05 03:57:13;;;;;;;0.57;0.55;;;2.80;99.90;;;;;;5119773;28;20601;-81
2021/03/05 03:59:40;;;;;;;0.70;0.70;;;2.70;99.90;;;;;;5120130;28;20264;-81
2021/03/05 04:02:08;;;;;;;1.50;1.00;;;2.60;99.90;;;;;;5116232;28;20291;-80
2021/03/05 04:04:36;;;;;;;0.60;0.57;;;2.60;99.90;;;;;;5113961;28;20183;-81
2021/03/05 04:07:05;;;;;;;2.08;0.70;;;2.50;99.90;;;;;;5119781;28;20236;-80
2021/03/05 04:09:34;;;;;;;0.50;0.40;;;2.50;99.90;;;;;;5119748;28;20199;-81
2021/03/05 04:12:02;;;;;;;0.50;0.40;;;2.50;99.90;;;;;;5118219;28;20196;-79
2021/03/05 04:14:31;;;;;;;0.65;0.63;;;2.40;99.90;;;;;;5117749;28;20211;-80
2021/03/05 04:16:57;;;;;;;0.50;0.40;;;2.40;99.90;;;;;;5116970;28;20313;-79
2021/03/05 04:19:24;;;;;;;0.50;0.50;;;2.40;99.90;;;;;;5117587;28;20245;-81
2021/03/05 04:21:51;;;;;;;0.50;0.40;;;2.30;99.90;;;;;;5117408;28;20199;-79
2021/03/05 04:24:18;;;;;;;0.50;0.50;;;2.30;99.90;;;;;;5117216;28;20196;-79
2021/03/05 04:26:45;;;;;;;2.58;2.38;;;2.20;99.90;;;;;;5116601;28;20214;-80
2021/03/05 04:29:11;;;;;;;1.65;1.65;;;2.20;99.90;;;;;;5117715;28;20282;-80
2021/03/05 04:31:38;;;;;;;0.50;0.40;;;2.20;99.90;;;;;;5114637;28;20563;-79
2021/03/05 04:34:05;;;;;;;0.50;0.40;;;2.30;99.90;;;;;;5109973;28;20287;-79
2021/03/05 04:36:31;;;;;;;0.50;0.40;;;2.10;99.90;;;;;;5117381;28;20217;-80
2021/03/05 04:38:57;;;;;;;0.50;0.40;;;2.10;99.90;;;;;;5118773;28;20214;-80
2021/03/05 04:41:23;;;;;;;0.50;0.40;;;2.00;99.90;;;;;;5119454;28;20233;-81
2021/03/05 04:43:50;;;;;;;0.50;0.40;;;2.00;99.90;;;;;;5119227;28;20194;-80
2021/03/05 04:46:16;;;;;;;0.50;0.45;;;1.80;99.90;;;;;;5117878;28;20196;-80
2021/03/05 04:48:43;;;;;;;0.65;0.65;;;1.70;99.90;;;;;;5118358;28;20245;-81
2021/03/05 04:51:09;;;;;;;0.50;0.40;;;1.60;99.90;;;;;;5118093;28;20194;-80
2021/03/05 04:53:35;;;;;;;0.50;0.40;;;1.50;99.90;;;;;;5118417;28;20213;-79
2021/03/05 04:56:02;;;;;;;1.95;1.85;;;1.40;99.90;;;;;;5117443;28;20198;-81
2021/03/05 04:58:28;;;;;;;0.50;0.40;;;1.30;99.90;;;;;;5118115;28;20206;-81
2021/03/05 05:00:54;;;;;;;0.50;0.40;;;1.20;99.90;;;;;;5118288;28;20249;-81
2021/03/05 05:03:20;;;;;;;0.50;0.50;;;1.10;99.90;;;;;;5093070;28;20192;-81
2021/03/05 05:05:48;;;;;;;1.30;0.77;;;1.20;99.90;;;;;;5115141;28;20196;-79
2021/03/05 05:08:14;;;;;;;0.50;0.40;;;1.10;99.90;;;;;;5117524;28;20219;-80
2021/03/05 05:10:40;;;;;;;0.50;0.40;;;1.10;99.90;;;;;;5118342;28;20196;-82
2021/03/05 05:13:06;;;;;;;0.50;0.40;;;1.00;99.90;;;;;;5118215;28;20216;-81
2021/03/05 05:15:33;;;;;;;0.50;0.40;;;0.90;99.90;;;;;;5117829;28;20749;-81
2021/03/05 05:17:59;;;;;;;1.73;1.35;;;0.80;99.90;;;;;;5117053;28;20247;-81
2021/03/05 05:20:25;;;;;;;0.50;0.40;;;0.80;99.90;;;;;;5118549;28;20202;-81
2021/03/05 05:22:52;;;;;;;0.50;0.40;;;0.70;99.90;;;;;;5117558;28;20198;-81
2021/03/05 05:25:18;;;;;;;0.50;0.40;;;0.50;99.90;;;;;;5118605;28;20200;-80
2021/03/05 05:27:45;;;;;;;0.50;0.40;;;0.50;99.90;;;;;;5116860;28;20229;-81
2021/03/05 05:30:12;;;;;;;0.50;0.50;;;0.40;99.90;;;;;;5118273;28;20206;-81
2021/03/05 05:32:38;;;;;;;0.50;0.45;;;0.40;99.90;;;;;;5114412;28;20209;-80
2021/03/05 05:35:06;;;;;;;0.57;0.55;;;0.40;99.90;;;;;;5111881;28;20192;-80
2021/03/05 05:37:32;;;;;;;0.50;0.50;;;0.30;99.90;;;;;;5116242;28;20702;-80
2021/03/05 05:40:01;;;;;;;0.50;0.50;;;0.20;99.90;;;;;;5117873;28;20201;-81
2021/03/05 05:42:27;;;;;;;0.50;0.40;;;0.10;99.90;;;;;;5117981;28;20229;-81
2021/03/05 05:44:54;;;;;;;0.50;0.40;;;0.00;99.90;;;;;;5117915;28;20190;-81
2021/03/05 05:47:21;;;;;;;0.50;0.50;;;-0.10;99.90;;;;;;5116952;28;20729;-81
2021/03/05 05:49:48;;;;;;;0.50;0.40;;;-0.10;99.90;;;;;;5099792;28;20666;-81
2021/03/05 05:52:21;;;;;;;0.60;0.60;;;-0.10;99.90;;;;;;5117487;28;20193;-81
2021/03/05 05:54:49;;;;;;;2.10;1.15;;;-0.20;99.90;;;;;;5117893;28;20278;-82
2021/03/05 05:57:17;;;;;;;0.50;0.50;;;-0.30;99.90;;;;;;5117637;28;20231;-79
2021/03/05 05:59:44;;;;;;;0.50;0.50;;;-0.30;99.90;;;;;;5123598;28;20284;-79
2021/03/05 06:02:12;;;;;;;0.50;0.50;;;-0.40;99.90;;;;;;5120410;28;20202;-78
2021/03/05 06:04:38;;;;;;;0.50;0.40;;;-0.40;99.90;;;;;;5116462;28;20202;-80
2021/03/05 06:07:05;;;;;;;0.50;0.40;;;-0.50;99.90;;;;;;5124166;28;20225;-79
2021/03/05 06:09:32;;;;;;;0.50;0.40;;;-0.60;99.90;;;;;;5124401;28;20196;-79
2021/03/05 06:11:59;;;;;;;0.50;0.50;;;-0.60;99.90;;;;;;5123812;28;20193;-79
2021/03/05 06:14:26;;;;;;;0.50;0.40;;;-0.60;99.90;;;;;;5121988;28;20605;-79
2021/03/05 06:16:56;;;;;;;1.77;1.67;;;-0.70;99.90;;;;;;5122180;28;20269;-80
2021/03/05 06:19:26;;;;;;;0.50;0.50;;;-0.70;99.90;;;;;;5123100;28;20659;-79
2021/03/05 06:21:53;;;;;;;0.50;0.40;;;-0.70;99.90;;;;;;5123747;28;20203;-80
2021/03/05 06:24:19;;;;;;;0.50;0.40;;;-0.70;99.90;;;;;;5120654;28;20189;-79
2021/03/05 06:26:50;;;;;;;0.50;0.45;;;-0.70;99.90;;;;;;5118570;28;20220;-80
2021/03/05 06:29:18;;;;;;;0.50;0.40;;;-0.70;99.90;;;;;;5119681;28;20625;-79
2021/03/05 06:31:54;;;;;;;0.50;0.40;;;-0.70;99.90;;;;;;5112522;28;20189;-80
2021/03/05 06:34:21;;;;;;;0.50;0.50;;;-0.70;99.90;;;;;;5108665;28;20203;-79
2021/03/05 06:37:02;;;;;;;0.50;0.50;;;-0.70;99.90;;;;;;5116071;28;20222;-80
2021/03/05 06:39:29;;;;;;;0.50;0.50;;;-0.70;99.90;;;;;;5115505;28;20200;-78
2021/03/05 06:42:04;;;;;;;0.50;0.45;;;-0.60;99.90;;;;;;5114646;28;20193;-77
2021/03/05 06:44:32;;;;;;;0.60;0.60;;;-0.60;99.90;;;;;;5114756;28;20690;-80
2021/03/05 06:47:12;;;;;;;0.50;0.50;;;-0.50;99.90;;;;;;5114890;28;20274;-78
2021/03/05 06:49:39;;;;;;;0.50;0.50;;;-0.40;99.90;;;;;;5118710;28;20182;-78
2021/03/05 06:52:06;;;;;;;0.50;0.40;;;-0.30;99.90;;;;;;5118401;28;20258;-78
2021/03/05 06:54:34;;;;;;;2.60;1.30;;;-0.30;99.90;;;;;;5116783;28;20214;-78
2021/03/05 06:57:01;;;;;;;0.65;0.65;;;-0.20;99.90;;;;;;5118291;28;20219;-79
2021/03/05 06:59:35;;;;;;;0.50;0.50;;;-0.10;99.90;;;;;;5118583;28;20224;-78
2021/03/05 07:02:02;;;;;;;1.13;1.13;;;-0.10;99.90;;;;;;5114664;28;20195;-78
2021/03/05 07:04:30;;;;;;;1.98;1.30;;;0.00;99.90;;;;;;5112363;28;20188;-78
2021/03/05 07:06:58;;;;;;;0.50;0.40;;;0.10;99.90;;;;;;5117997;28;20229;-78
2021/03/05 07:09:26;;;;;;;0.50;0.40;;;0.20;99.90;;;;;;5118941;28;20197;-79
2021/03/05 07:11:54;;;;;;;0.50;0.40;;;0.40;99.90;;;;;;5119114;28;20221;-78
2021/03/05 07:14:25;;;;;;;1.20;1.20;;;0.50;99.90;;;;;;5120876;28;20211;-78
2021/03/05 07:16:52;;;;;;;0.50;0.40;;;0.60;99.90;;;;;;5121411;28;20215;-79
2021/03/05 07:19:20;;;;;;;0.60;0.60;;;0.80;99.90;;;;;;5123057;28;20199;-78
2021/03/05 07:21:48;;;;;;;0.50;0.40;;;1.00;99.90;;;;;;5122534;28;20535;-79
2021/03/05 07:24:17;;;;;;;0.60;0.60;;;1.10;99.90;;;;;;5122274;28;20190;-78
2021/03/05 07:26:53;;;;;;;1.83;1.73;;;1.20;99.90;;;;;;5122024;28;20582;-78
2021/03/05 07:29:21;;;;;;;0.60;0.60;;;1.10;99.90;;;;;;5121772;28;20286;-79
2021/03/05 07:31:56;;;;;;;0.60;0.50;;;1.30;99.90;;;;;;5118841;28;20218;-78
2021/03/05 07:34:24;;;;;;;0.50;0.40;;;1.30;99.90;;;;;;5115353;28;20200;-78
2021/03/05 07:36:55;;;;;;;0.50;0.40;;;1.20;99.90;;;;;;5119447;28;20214;-79
2021/03/05 07:39:25;;;;;;;0.50;0.40;;;1.30;99.90;;;;;;5121872;28;20207;-79
2021/03/05 07:41:54;;;;;;;0.50;0.40;;;1.40;99.90;;;;;;5121656;28;20196;-80
2021/03/05 07:44:21;;;;;;;0.50;0.40;;;1.40;99.90;;;;;;5120811;28;20906;-78
2021/03/05 07:46:48;;;;;;;0.50;0.40;;;1.40;99.90;;;;;;5120350;28;20242;-79
2021/03/05 07:49:15;;;;;;;0.50;0.47;;;1.60;99.90;;;;;;5120761;28;20200;-78
2021/03/05 07:51:42;;;;;;;0.70;0.70;;;1.60;99.90;;;;;;5121401;28;20622;-78
2021/03/05 07:54:09;;;;;;;0.50;0.40;;;1.70;99.90;;;;;;5121472;28;20227;-79
2021/03/05 07:56:45;;;;;;;0.50;0.40;;;1.90;99.90;;;;;;5120089;28;20295;-79
2021/03/05 07:59:37;;;;;;;0.50;0.40;;;2.20;99.90;;;;;;5121370;28;20233;-78
2021/03/05 08:02:04;;;;;;;0.90;0.90;;;2.40;99.90;;;;;;5117209;28;20651;-79
2021/03/05 08:04:58;;;;;;;0.50;0.40;;;2.70;99.90;;;;;;5115071;28;20200;-78
2021/03/05 08:07:25;;;;;;;0.50;0.40;;;3.30;99.90;;;;;;5120279;28;20215;-79
2021/03/05 08:09:53;;;;;;;0.50;0.40;;;3.60;99.90;;;;;;5120702;28;20197;-78
2021/03/05 08:12:35;;;;;;;0.50;0.40;;;4.10;99.90;;;;;;5121513;28;20286;-79
2021/03/05 08:15:24;;;;;;;0.50;0.40;;;4.20;99.90;;;;;;5121198;28;20195;-78
2021/03/05 08:17:52;;;;;;;0.50;0.50;;;4.50;99.90;;;;;;5106374;28;20216;-78
2021/03/05 08:20:52;;;;;;;0.50;0.40;;;5.00;99.90;;;;;;5120615;28;20276;-79
2021/03/05 08:23:18;;;;;;;0.50;0.40;;;6.10;99.90;;;;;;5120657;28;20181;-78
2021/03/05 08:25:51;;;;;;;1.50;1.25;;;7.10;99.90;;;;;;5119419;28;20189;-79
2021/03/05 08:28:36;;;;;;;0.50;0.40;;;8.50;99.90;;;;;;5121516;28;20212;-79
2021/03/05 08:31:02;;;;;;;0.60;0.50;;;9.40;99.90;;;;;;5118940;28;20205;-79
2021/03/05 08:33:32;;;;;;;0.50;0.40;;;10.20;99.90;;;;;;5115625;28;20283;-79
2021/03/05 08:35:59;;;;;;;0.50;0.40;;;11.50;96.20;;;;;;5119591;28;20217;-79
2021/03/05 08:38:36;;;;;;;0.50;0.40;;;11.40;90.10;;;;;;5121588;28;20258;-79
2021/03/05 08:41:04;;;;;;;0.50;0.40;;;12.20;99.90;;;;;;5122885;28;20219;-79
2021/03/05 08:43:32;;;;;;;0.50;0.40;;;12.50;88.60;;;;;;5122071;28;20254;-79
2021/03/05 08:46:03;;;;;;;0.50;0.40;;;13.30;79.00;;;;;;5121222;28;20203;-80
2021/03/05 08:48:32;;;;;;;0.50;0.40;;;13.30;72.20;;;;;;5104173;22;20241;-79
2021/03/05 08:51:04;;;;;;;0.70;0.47;;;14.60;70.10;;;;;;5083124;28;20194;-81
2021/03/05 08:53:39;;;;;;;0.50;0.40;;;15.30;64.40;;;;;;5086553;28;20217;-79
2021/03/05 08:56:06;;;;;;;0.50;0.40;;;14.80;64.50;;;;;;5085459;28;20865;-81
2021/03/05 08:58:33;;;;;;;0.50;0.40;;;14.10;63.40;;;;;;5087002;28;20214;-81
2021/03/05 09:00:59;;;;;;;0.50;0.30;;;15.40;66.40;;;;;;5088010;28;20469;-81
2021/03/05 09:03:26;;;;;;;0.50;0.30;;;16.30;61.90;;;;;;5086097;28;20438;-79
2021/03/05 09:05:53;;;;;;;0.50;0.40;;;17.30;59.90;;;;;;5085465;28;20435;-79
2021/03/05 09:08:22;;;;;;;0.60;0.40;;;17.70;55.70;;;;;;5086415;28;20453;-79
2021/03/05 09:10:51;;;;;;;0.50;0.30;;;15.90;53.50;;;;;;5086306;28;20459;-79
2021/03/05 09:13:22;;;;;;;0.50;0.33;;;16.10;56.00;;;;;;5086149;28;20475;-79
2021/03/05 09:15:50;;;;;;;0.50;0.40;;;16.80;56.60;;;;;;5084544;28;20436;-77
2021/03/05 09:18:19;;;;;;;0.50;0.30;;;16.10;53.80;;;;;;5083654;28;20456;-80
2021/03/05 09:20:48;;;;;;;0.50;0.30;;;16.30;54.40;;;;;;5091018;28;20445;-79
2021/03/05 09:23:36;;;;;;;0.50;0.40;;;16.60;54.30;;;;;;5106293;28;20437;-80
2021/03/05 09:26:04;;;;;;;0.70;0.40;;;16.40;54.10;;;;;;5101878;28;20451;-80
2021/03/05 09:28:39;;;;;;;0.50;0.40;;;15.10;53.60;;;;;;5106749;28;20469;-79
2021/03/05 09:31:06;;;;;;;1.90;0.70;;;14.50;55.70;;;;;;5106750;28;20462;-79
2021/03/05 09:33:34;;;;;;;0.50;0.40;;;14.40;54.60;;;;;;5108695;28;20470;-79
2021/03/05 09:36:07;;;;;;;0.50;0.40;;;13.60;55.60;;;;;;5108731;28;20196;-78
2021/03/05 09:38:34;;;;;;;0.50;0.40;;;13.70;55.20;;;;;;5109341;28;20238;-79
2021/03/05 09:41:17;;;;;;;0.50;0.40;;;14.20;55.90;;;;;;5109460;28;20280;-80
2021/03/05 09:43:45;;;;;;;0.50;0.40;;;15.00;57.70;;;;;;5110422;28;20706;-78
2021/03/05 09:46:23;;;;;;;0.82;0.82;;;15.30;55.00;;;;;;5110230;28;20441;-77
2021/03/05 09:48:51;;;;;;;0.50;0.40;;;14.70;53.30;;;;;;5101250;28;20223;-81
2021/03/05 09:51:17;;;;;;;0.50;0.40;;;14.70;53.60;;;;;;5091077;28;20497;-81
2021/03/05 09:53:52;;;;;;;0.50;0.40;;;15.00;53.90;;;;;;5106473;28;20478;-77
2021/03/05 09:56:20;;;;;;;0.60;0.50;;;15.60;56.20;;;;;;5105513;28;20487;-79
2021/03/05 09:58:56;;;;;;;0.50;0.30;;;16.60;53.90;;;;;;5103466;28;20472;-80
2021/03/05 10:01:22;;;;;;;0.70;0.50;;;17.40;53.40;;;;;;5102218;28;20446;-79
2021/03/05 10:03:56;;;;;;;0.50;0.30;;;16.30;49.90;;;;;;5103119;28;21011;-79
2021/03/05 10:06:23;;;;;;;0.50;0.30;;;16.20;51.30;;;;;;5102032;28;20448;-80
2021/03/05 10:08:58;;;;;;;0.50;0.40;;;16.20;51.50;;;;;;5102712;28;20461;-79
2021/03/05 10:11:31;;;;;;;0.63;0.63;;;16.10;52.00;;;;;;5103475;28;20449;-79
2021/03/05 10:13:58;;;;;;;0.50;0.30;;;16.00;54.50;;;;;;5104181;28;20455;-80
2021/03/05 10:16:27;;;;;;;0.50;0.30;;;16.30;51.10;;;;;;5102953;28;20461;-78
2021/03/05 10:18:55;;;;;;;0.50;0.30;;;16.10;50.00;;;;;;5099748;28;20513;-79
2021/03/05 10:21:23;;;;;;;0.50;0.40;;;15.50;49.70;;;;;;5093548;28;20439;-79
2021/03/05 10:23:50;;;;;;;0.50;0.40;;;15.00;49.80;;;;;;5084967;28;20527;-79
2021/03/05 10:26:18;;;;;;;0.50;0.40;;;14.10;50.30;;;;;;5084214;28;20515;-79
2021/03/05 10:28:46;;;;;;;0.50;0.40;;;13.50;51.40;;;;;;5085745;28;20467;-79
2021/03/05 10:31:13;;;;;;;0.50;0.40;;;14.20;51.70;;;;;;5085291;28;20521;-77
2021/03/05 10:33:42;;;;;;;0.50;0.40;;;15.00;51.70;;;;;;5085298;28;20480;-77
2021/03/05 10:36:09;;;;;;;0.50;0.30;;;15.70;51.00;;;;;;5082515;28;20814;-78
2021/03/05 10:38:36;;;;;;;0.50;0.30;;;17.00;51.30;;;;;;5083947;28;20484;-79
2021/03/05 10:41:04;;;;;;;0.50;0.40;;;17.70;49.10;;;;;;5084598;28;20460;-79
2021/03/05 10:43:30;;;;;;;0.50;0.40;;;18.20;48.30;;;;;;5085777;28;20432;-78
2021/03/05 10:45:56;;;;;;;0.50;0.40;;;18.10;47.60;;;;;;5083995;28;20443;-81
2021/03/05 10:48:23;;;;;;;0.50;0.40;;;17.90;46.80;;;;;;5084223;28;20493;-79
2021/03/05 10:50:50;;;;;;;0.50;0.30;;;18.80;47.30;;;;;;5093038;28;20428;-80
2021/03/05 10:53:16;;;;;;;0.50;0.30;;;18.60;45.60;;;;;;5108254;28;20471;-80
2021/03/05 10:55:42;;;;;;;0.70;0.40;;;19.30;46.10;;;;;;5107830;28;20435;-80
2021/03/05 10:58:08;;;;;;;1.23;0.67;;;19.60;45.00;;;;;;5106979;28;20795;-80
2021/03/05 11:00:35;;;;;;;0.50;0.30;;;19.00;44.20;;;;;;5108744;28;20440;-79
2021/03/05 11:03:01;;;;;;;0.50;0.30;;;19.90;45.00;;;;;;5108012;28;20439;-79
2021/03/05 11:05:28;;;;;;;0.50;0.30;;;18.70;43.10;;;;;;5107941;28;20441;-80
2021/03/05 11:07:55;;;;;;;2.23;2.10;;;18.10;43.70;;;;;;5107771;28;20458;-80
2021/03/05 11:10:22;;;;;;;1.27;1.17;;;18.50;44.10;;;;;;5107815;28;20458;-79
2021/03/05 11:12:49;;;;;;;0.60;0.40;;;17.80;44.80;;;;;;5108814;28;20804;-80
2021/03/05 11:15:17;;;;;;;0.50;0.30;;;18.10;44.50;;;;;;5108470;28;20506;-78
2021/03/05 11:17:43;;;;;;;164.73;8.87;;;18.00;45.20;;;;;;5102633;28;20480;-79
2021/03/05 11:20:10;;;;;;;0.50;0.40;;;19.10;48.00;;;;;;5103936;28;20431;-79
2021/03/05 11:22:38;;;;;;;0.50;0.30;;;19.30;45.50;;;;;;5087508;28;20490;-79
2021/03/05 11:25:05;;;;;;;0.50;0.40;;;19.70;45.40;;;;;;5087996;28;20429;-81
2021/03/05 11:27:34;;;;;;;0.87;0.70;;;20.10;43.20;;;;;;5069498;28;20484;-80
2021/03/05 11:30:00;;;;;;;0.50;0.30;;;19.30;42.60;;;;;;5088853;28;20980;-80
2021/03/05 11:32:27;;;;;;;0.50;0.30;;;17.60;41.80;;;;;;5082068;28;20460;-79
2021/03/05 11:34:53;;;;;;;0.83;0.83;;;17.30;42.40;;;;;;5079823;28;20478;-79
2021/03/05 11:37:19;;;;;;;0.50;0.30;;;17.80;44.10;;;;;;5080762;28;20448;-80
2021/03/05 11:39:46;;;;;;;0.93;0.60;;;18.40;44.10;;;;;;5081356;28;20439;-79
2021/03/05 11:42:13;;;;;;;0.50;0.30;;;18.60;44.10;;;;;;5083261;28;20470;-80
2021/03/05 11:44:39;;;;;;;0.50;0.30;;;18.80;43.10;;;;;;5082854;28;20432;-79
2021/03/05 11:47:06;;;;;;;0.50;0.30;;;18.60;42.40;;;;;;5082834;28;20508;-79
2021/03/05 11:49:32;;;;;;;0.50;0.30;;;18.10;41.50;;;;;;5087931;28;20830;-79
2021/03/05 11:51:58;;;;;;;0.50;0.30;;;18.00;42.70;;;;;;5093627;28;20435;-79
2021/03/05 11:54:24;;;;;;;0.50;0.50;;;18.10;42.10;;;;;;5103606;28;20557;-79
2021/03/05 11:56:51;;;;;;;0.50;0.30;;;18.70;43.10;;;;;;5105115;28;20508;-80
2021/03/05 11:59:18;;;;;;;0.50;0.40;;;18.90;42.30;;;;;;5106313;28;20456;-80
2021/03/05 12:01:44;;;;;;;0.50;0.30;;;18.30;41.10;;;;;;5107021;28;20447;-81
2021/03/05 12:04:11;;;;;;;0.50;0.40;;;18.00;41.90;;;;;;5105414;28;20462;-80
2021/03/05 12:06:37;;;;;;;0.60;0.40;;;17.00;40.40;;;;;;5106836;28;20446;-80
2021/03/05 12:09:04;;;;;;;0.50;0.40;;;17.10;41.80;;;;;;5086979;28;20470;-82
2021/03/05 12:11:31;;;;;;;0.50;0.37;;;16.50;41.20;;;;;;5104890;28;20466;-79
2021/03/05 12:13:58;;;;;;;0.50;0.30;;;16.10;42.00;;;;;;5105327;28;20499;-81
2021/03/05 12:16:24;;;;;;;0.80;0.40;;;16.90;43.70;;;;;;5105403;28;20434;-80
2021/03/05 12:18:51;;;;;;;0.50;0.30;;;16.40;41.30;;;;;;5099706;28;20455;-80
2021/03/05 12:21:17;;;;;;;0.50;0.30;;;17.20;41.90;;;;;;5087084;28;20440;-80
2021/03/05 12:23:43;;;;;;;0.50;0.30;;;17.50;41.50;;;;;;5085564;28;20432;-79
2021/03/05 12:26:10;;;;;;;0.50;0.30;;;18.30;40.50;;;;;;5084401;28;20450;-80
2021/03/05 12:28:36;;;;;;;0.50;0.50;;;18.10;40.00;;;;;;5087291;28;20456;-81
2021/03/05 12:31:03;;;;;;;0.50;0.30;;;18.10;41.00;;;;;;5088345;28;20440;-80
2021/03/05 12:33:29;;;;;;;0.50;0.30;;;16.70;39.90;;;;;;5087487;28;20787;-81
2021/03/05 12:35:55;;;;;;;0.50;0.33;;;16.20;40.40;;;;;;5085497;28;20446;-79
2021/03/05 12:38:22;;;;;;;0.50;0.40;;;15.80;41.10;;;;;;5087383;28;20473;-80
2021/03/05 12:40:48;;;;;;;0.50;0.40;;;15.20;41.40;;;;;;5086189;28;20432;-79
2021/03/05 12:43:14;;;;;;;0.50;0.30;;;15.70;43.40;;;;;;5086406;28;20447;-79
2021/03/05 12:45:40;;;;;;;0.50;0.30;;;15.70;42.10;;;;;;5088009;28;20448;-79
2021/03/05 12:48:09;;;;;;;0.50;0.30;;;15.70;42.00;;;;;;5084034;28;20521;-79
2021/03/05 12:50:35;;;;;;;0.50;0.30;;;15.20;41.10;;;;;;5093855;28;20463;-80
2021/03/05 12:53:01;;;;;;;0.50;0.33;;;14.40;40.90;;;;;;5107977;28;20493;-81
2021/03/05 12:55:28;;;;;;;0.50;0.30;;;14.70;41.90;;;;;;5108310;28;20445;-80
2021/03/05 12:57:54;;;;;;;0.50;0.30;;;15.40;42.70;;;;;;5104778;28;20455;-80
2021/03/05 13:00:22;;;;;;;0.50;0.30;;;16.30;42.90;;;;;;5105856;28;20900;-80
2021/03/05 13:02:48;;;;;;;0.50;0.40;;;17.10;41.40;;;;;;5107708;28;20448;-79